createdAt,value
2018-04-30T00:01:47.577Z,99461.46
2018-04-30T00:04:15.941Z,99456.52
2018-04-30T00:06:44.309Z,99448.67
2018-04-30T00:09:12.810Z,99439.32
2018-04-30T00:11:41.288Z,99424.30
2018-04-30T00:14:09.680Z,99427.79
2018-04-30T00:16:38.038Z,99419.91
2018-04-30T00:19:06.392Z,99412.11
2018-04-30T00:21:35.529Z,99404.83
2018-04-30T00:24:03.861Z,99392.38
2018-04-30T00:26:33.327Z,99392.17
2018-04-30T00:29:01.664Z,99382.33
2018-04-30T00:31:30.764Z,99375.65
2018-04-30T00:33:59.129Z,99360.34
2018-04-30T00:36:28.258Z,99352.78
2018-04-30T00:38:56.577Z,99345.74
2018-04-30T00:41:25.020Z,99335.63
2018-04-30T00:43:53.383Z,99332.23
2018-04-30T00:46:21.728Z,99326.81
2018-04-30T00:48:50.703Z,99324.38
2018-04-30T00:51:19.027Z,99319.17
2018-04-30T00:53:47.377Z,99306.59
2018-04-30T00:56:15.738Z,99306.34
2018-04-30T00:58:44.156Z,99298.41
2018-04-30T01:01:12.608Z,99290.80
2018-04-30T01:03:41.016Z,99280.83
2018-04-30T01:06:09.531Z,99270.17
2018-04-30T01:08:37.931Z,99266.50
2018-04-30T01:11:06.322Z,99261.69
2018-04-30T01:13:35.207Z,99267.71
2018-04-30T01:16:03.563Z,99254.31
2018-04-30T01:18:32.347Z,99252.75
2018-04-30T01:21:00.737Z,99244.55
2018-04-30T01:23:29.154Z,99236.55
2018-04-30T01:25:57.577Z,99228.38
2018-04-30T01:28:25.987Z,99220.06
2018-04-30T01:30:54.379Z,99212.75
2018-04-30T01:33:22.756Z,99211.30
2018-04-30T01:35:51.893Z,99206.13
2018-04-30T01:38:20.242Z,99204.06
2018-04-30T01:40:48.555Z,99185.34
2018-04-30T01:43:16.929Z,99190.12
2018-04-30T01:45:45.284Z,99189.91
2018-04-30T01:48:14.410Z,99182.28
2018-04-30T01:50:43.599Z,99183.66
2018-04-30T01:53:11.949Z,99180.94
2018-04-30T01:55:40.312Z,99180.87
2018-04-30T01:58:09.565Z,99187.48
2018-04-30T02:00:37.894Z,99193.33
2018-04-30T02:03:06.244Z,99178.95
2018-04-30T02:05:34.595Z,99180.59
2018-04-30T02:08:02.987Z,99172.06
2018-04-30T02:10:31.347Z,99164.91
2018-04-30T02:12:59.680Z,99154.31
2018-04-30T02:15:28.038Z,99144.88
2018-04-30T02:17:56.410Z,99131.44
2018-04-30T02:20:24.747Z,99133.39
2018-04-30T02:22:53.890Z,99116.79
2018-04-30T02:25:22.364Z,99115.56
2018-04-30T02:27:50.743Z,99109.52
2018-04-30T02:30:19.073Z,99106.96
2018-04-30T02:32:48.319Z,99099.70
2018-04-30T02:35:16.708Z,99096.59
2018-04-30T02:37:45.991Z,99087.88
2018-04-30T02:40:14.368Z,99084.92
2018-04-30T02:42:42.772Z,99085.16
2018-04-30T02:45:11.788Z,99077.65
2018-04-30T02:47:40.131Z,99086.55
2018-04-30T02:50:08.608Z,99087.77
2018-04-30T02:52:37.052Z,99084.50
2018-04-30T02:55:06.203Z,99078.94
2018-04-30T02:57:34.527Z,99071.97
2018-04-30T03:00:03.770Z,99076.10
2018-04-30T03:02:32.112Z,99061.59
2018-04-30T03:05:00.594Z,99061.55
2018-04-30T03:07:28.928Z,99048.87
2018-04-30T03:09:57.308Z,99040.35
2018-04-30T03:12:25.654Z,99058.50
2018-04-30T03:14:54.044Z,99063.42
2018-04-30T03:17:23.350Z,99054.41
2018-04-30T03:19:51.701Z,99058.53
2018-04-30T03:22:20.809Z,99063.80
2018-04-30T03:24:49.748Z,99073.75
2018-04-30T03:27:18.087Z,99092.88
2018-04-30T03:29:47.405Z,99105.70
2018-04-30T03:32:15.758Z,99111.33
2018-04-30T03:34:44.129Z,99110.42
2018-04-30T03:37:12.492Z,99106.84
2018-04-30T03:39:40.900Z,99096.91
2018-04-30T03:42:09.268Z,99089.02
2018-04-30T03:44:37.687Z,99093.64
2018-04-30T03:47:06.781Z,99095.44
2018-04-30T03:49:35.191Z,99087.02
2018-04-30T03:52:03.481Z,99090.84
2018-04-30T03:54:31.843Z,99095.09
2018-04-30T03:57:01.352Z,99088.52
2018-04-30T03:59:29.721Z,99085.19
2018-04-30T04:02:16.573Z,99082.42
2018-04-30T04:05:02.697Z,99083.47
2018-04-30T04:07:31.037Z,99081.95
2018-04-30T04:10:00.096Z,99087.46
2018-04-30T04:12:29.264Z,99073.41
2018-04-30T04:14:57.629Z,99071.70
2018-04-30T04:17:25.975Z,99080.33
2018-04-30T04:19:54.334Z,99066.38
2018-04-30T04:22:23.427Z,99078.13
2018-04-30T04:24:52.549Z,99073.33
2018-04-30T04:27:20.920Z,99069.06
2018-04-30T04:29:50.310Z,99067.73
2018-04-30T04:32:19.646Z,99060.58
2018-04-30T04:34:48.033Z,99055.66
2018-04-30T04:37:16.380Z,99051.55
2018-04-30T04:39:44.745Z,99054.98
2018-04-30T04:42:13.892Z,99052.60
2018-04-30T04:44:42.273Z,99052.45
2018-04-30T04:47:10.661Z,99052.72
2018-04-30T04:49:39.864Z,99057.66
2018-04-30T04:52:08.211Z,99051.64
2018-04-30T04:54:36.590Z,99049.06
2018-04-30T04:57:04.940Z,99052.61
2018-04-30T04:59:34.169Z,99044.83
2018-04-30T05:02:03.138Z,99042.55
2018-04-30T05:04:31.467Z,99045.70
2018-04-30T05:07:00.789Z,99047.98
2018-04-30T05:09:30.159Z,99059.81
2018-04-30T05:11:58.951Z,99056.85
2018-04-30T05:14:27.844Z,99051.56
2018-04-30T05:16:56.198Z,99054.16
2018-04-30T05:19:24.561Z,99062.63
2018-04-30T05:21:52.931Z,99066.93
2018-04-30T05:24:21.851Z,99076.13
2018-04-30T05:26:50.229Z,99074.20
2018-04-30T05:29:18.831Z,99075.65
2018-04-30T05:31:47.246Z,99079.16
2018-04-30T05:34:16.433Z,99084.95
2018-04-30T05:36:45.374Z,99079.79
2018-04-30T05:39:13.784Z,99078.87
2018-04-30T05:41:42.153Z,99078.91
2018-04-30T05:44:10.487Z,99075.52
2018-04-30T05:46:39.631Z,99074.18
2018-04-30T05:49:08.948Z,99079.48
2018-04-30T05:51:37.360Z,99081.15
2018-04-30T05:54:06.481Z,99083.56
2018-04-30T05:56:36.230Z,99077.32
2018-04-30T05:59:04.564Z,99074.99
2018-04-30T06:01:32.998Z,99077.98
2018-04-30T06:04:01.855Z,99076.31
2018-04-30T06:06:30.609Z,99083.07
2018-04-30T06:08:59.736Z,99087.09
2018-04-30T06:11:28.221Z,99088.91
2018-04-30T06:13:56.637Z,99097.19
2018-04-30T06:16:25.026Z,99093.70
2018-04-30T06:18:54.128Z,99094.45
2018-04-30T06:21:24.094Z,99085.94
2018-04-30T06:23:52.415Z,99087.28
2018-04-30T06:26:21.543Z,99087.37
2018-04-30T06:28:49.902Z,99088.06
2018-04-30T06:31:19.109Z,99084.05
2018-04-30T06:33:48.942Z,99086.30
2018-04-30T06:36:17.422Z,99094.56
2018-04-30T06:38:45.885Z,99098.50
2018-04-30T06:41:14.323Z,99092.06
2018-04-30T06:43:42.680Z,99087.28
2018-04-30T06:46:11.040Z,99090.16
2018-04-30T06:48:39.362Z,99095.55
2018-04-30T06:51:08.102Z,99089.77
2018-04-30T06:53:36.519Z,99098.12
2018-04-30T06:56:04.902Z,99084.36
2018-04-30T06:58:34.301Z,99089.19
2018-04-30T07:01:03.385Z,99095.90
2018-04-30T07:03:31.767Z,99103.56
2018-04-30T07:06:00.186Z,99103.33
2018-04-30T07:08:29.353Z,99105.33
2018-04-30T07:10:58.490Z,99109.54
2018-04-30T07:13:27.159Z,99111.61
2018-04-30T07:15:56.319Z,99113.33
2018-04-30T07:18:24.687Z,99124.80
2018-04-30T07:20:53.914Z,99129.08
2018-04-30T07:23:22.282Z,99150.39
2018-04-30T07:25:50.680Z,99147.33
2018-04-30T07:28:19.117Z,99155.94
2018-04-30T07:30:48.760Z,99155.72
2018-04-30T07:33:17.197Z,99171.59
2018-04-30T07:35:45.498Z,99192.86
2018-04-30T07:38:13.884Z,99194.73
2018-04-30T07:40:44.010Z,99192.68
2018-04-30T07:43:12.358Z,99191.87
2018-04-30T07:45:41.487Z,99199.56
2018-04-30T07:48:09.871Z,99199.32
2018-04-30T07:50:38.192Z,99208.02
2018-04-30T07:53:07.346Z,99213.70
2018-04-30T07:55:36.682Z,99215.55
2018-04-30T07:58:05.043Z,99227.74
2018-04-30T08:00:34.202Z,99226.12
2018-04-30T08:03:02.640Z,99228.80
2018-04-30T08:05:31.078Z,99230.22
2018-04-30T08:07:59.492Z,99241.26
2018-04-30T08:10:28.623Z,99240.91
2018-04-30T08:12:57.691Z,99248.03
2018-04-30T08:15:26.081Z,99242.39
2018-04-30T08:17:54.410Z,99255.34
2018-04-30T08:20:22.825Z,99263.70
2018-04-30T08:22:51.917Z,99279.04
2018-04-30T08:25:21.056Z,99282.31
2018-04-30T08:27:49.519Z,99285.17
2018-04-30T08:30:17.990Z,99303.48
2018-04-30T08:32:46.363Z,99306.56
2018-04-30T08:35:14.813Z,99319.19
2018-04-30T08:37:43.143Z,99322.17
2018-04-30T08:40:11.542Z,99335.11
2018-04-30T08:42:39.887Z,99337.64
2018-04-30T08:45:08.358Z,99333.52
2018-04-30T08:47:36.641Z,99341.05
2018-04-30T08:50:04.988Z,99349.69
2018-04-30T08:52:33.362Z,99350.97
2018-04-30T08:55:02.701Z,99352.14
2018-04-30T08:57:31.801Z,99363.23
2018-04-30T09:00:00.130Z,99351.96
2018-04-30T09:02:28.525Z,99345.50
2018-04-30T09:04:59.199Z,99340.97
2018-04-30T09:07:27.552Z,99352.81
2018-04-30T09:09:56.691Z,99351.78
2018-04-30T09:12:25.053Z,99355.25
2018-04-30T09:14:53.674Z,99359.72
2018-04-30T09:17:21.937Z,99354.86
2018-04-30T09:19:50.274Z,99350.78
2018-04-30T09:22:18.873Z,99356.44
2018-04-30T09:24:47.233Z,99363.42
2018-04-30T09:27:15.608Z,99363.70
2018-04-30T09:29:44.789Z,99356.89
2018-04-30T09:32:13.896Z,99370.52
2018-04-30T09:34:43.012Z,99381.91
2018-04-30T09:37:11.704Z,99377.02
2018-04-30T09:39:40.338Z,99375.20
2018-04-30T09:42:08.767Z,99384.02
2018-04-30T09:44:37.941Z,99375.37
2018-04-30T09:47:06.265Z,99382.64
2018-04-30T09:49:34.665Z,99397.86
2018-04-30T09:52:03.425Z,99399.23
2018-04-30T09:54:31.772Z,99400.57
2018-04-30T09:57:00.102Z,99405.87
2018-04-30T09:59:28.455Z,99420.17
2018-04-30T10:01:56.826Z,99430.55
2018-04-30T10:04:25.179Z,99440.80
2018-04-30T10:06:53.530Z,99443.99
2018-04-30T10:09:23.496Z,99446.91
2018-04-30T10:11:51.959Z,99436.58
2018-04-30T10:14:20.420Z,99442.47
2018-04-30T10:16:48.813Z,99444.46
2018-04-30T10:19:17.977Z,99440.50
2018-04-30T10:21:46.317Z,99439.95
2018-04-30T10:24:14.753Z,99434.22
2018-04-30T10:26:43.856Z,99429.02
2018-04-30T10:29:13.730Z,99437.11
2018-04-30T10:31:42.170Z,99440.62
2018-04-30T10:34:10.462Z,99442.55
2018-04-30T10:36:38.800Z,99447.35
2018-04-30T10:39:07.186Z,99443.59
2018-04-30T10:41:37.248Z,99450.31
2018-04-30T10:44:05.618Z,99458.08
2018-04-30T10:46:33.942Z,99459.61
2018-04-30T10:49:02.267Z,99455.88
2018-04-30T10:51:30.855Z,99457.27
2018-04-30T10:53:59.161Z,99460.64
2018-04-30T10:56:27.488Z,99470.27
2018-04-30T10:58:56.769Z,99476.09
2018-04-30T11:01:25.914Z,99482.69
2018-04-30T11:03:54.266Z,99479.17
2018-04-30T11:06:22.808Z,99483.13
2018-04-30T11:08:51.133Z,99483.08
2018-04-30T11:11:19.542Z,99495.12
2018-04-30T11:13:47.874Z,99500.70
2018-04-30T11:16:16.225Z,99497.00
2018-04-30T11:18:44.579Z,99505.98
2018-04-30T11:21:12.954Z,99523.01
2018-04-30T11:23:41.285Z,99517.79
2018-04-30T11:26:10.456Z,99546.91
2018-04-30T11:28:38.912Z,99544.31
2018-04-30T11:31:07.322Z,99543.41
2018-04-30T11:33:36.476Z,99537.77
2018-04-30T11:36:04.843Z,99541.05
2018-04-30T11:38:33.173Z,99535.06
2018-04-30T11:41:01.659Z,99529.55
2018-04-30T11:43:30.824Z,99527.25
2018-04-30T11:45:59.948Z,99539.66
2018-04-30T11:48:29.058Z,99542.34
2018-04-30T11:50:57.441Z,99536.30
2018-04-30T11:53:26.658Z,99528.47
2018-04-30T11:55:55.909Z,99535.77
2018-04-30T11:58:24.268Z,99541.45
2018-04-30T12:00:52.601Z,99547.41
2018-04-30T12:03:21.048Z,99557.25
2018-04-30T12:05:49.394Z,99555.15
2018-04-30T12:08:17.750Z,99550.52
2018-04-30T12:10:46.191Z,99563.55
2018-04-30T12:13:15.419Z,99573.98
2018-04-30T12:15:44.360Z,99573.78
2018-04-30T12:18:12.749Z,99568.39
2018-04-30T12:20:42.793Z,99573.63
2018-04-30T12:23:12.119Z,99583.32
2018-04-30T12:25:40.521Z,99577.18
2018-04-30T12:28:08.881Z,99580.45
2018-04-30T12:30:37.233Z,99567.11
2018-04-30T12:33:05.614Z,99568.08
2018-04-30T12:35:34.003Z,99553.78
2018-04-30T12:38:02.427Z,99563.55
2018-04-30T12:40:30.803Z,99572.70
2018-04-30T12:42:59.945Z,99575.80
2018-04-30T12:45:29.104Z,99579.58
2018-04-30T12:47:58.210Z,99588.69
2018-04-30T12:50:26.592Z,99584.94
2018-04-30T12:52:55.729Z,99587.39
2018-04-30T12:55:24.085Z,99585.44
2018-04-30T12:57:53.204Z,99598.25
2018-04-30T13:00:21.576Z,99604.53
2018-04-30T13:02:50.001Z,99600.35
2018-04-30T13:05:18.388Z,99598.44
2018-04-30T13:07:46.790Z,99612.42
2018-04-30T13:10:15.907Z,99617.97
2018-04-30T13:12:45.076Z,99614.13
2018-04-30T13:15:13.518Z,99614.28
2018-04-30T13:17:41.928Z,99619.61
2018-04-30T13:20:10.367Z,99626.42
2018-04-30T13:22:38.716Z,99620.94
2018-04-30T13:25:07.848Z,99623.08
2018-04-30T13:27:37.004Z,99615.11
2018-04-30T13:30:06.101Z,99629.16
2018-04-30T13:32:35.935Z,99614.94
2018-04-30T13:35:04.261Z,99618.01
2018-04-30T13:37:32.667Z,99614.55
2018-04-30T13:40:01.960Z,99617.59
2018-04-30T13:42:31.078Z,99616.21
2018-04-30T13:44:59.461Z,99615.16
2018-04-30T13:47:29.324Z,99622.88
2018-04-30T13:49:57.735Z,99619.56
2018-04-30T13:52:26.867Z,99615.19
2018-04-30T13:54:55.279Z,99607.16
2018-04-30T13:57:23.637Z,99601.04
2018-04-30T13:59:52.026Z,99601.68
2018-04-30T14:02:20.442Z,99593.10
2018-04-30T14:04:48.832Z,99601.44
2018-04-30T14:07:18.784Z,99595.41
2018-04-30T14:09:47.180Z,99597.69
2018-04-30T14:12:17.357Z,99596.70
2018-04-30T14:14:46.470Z,99604.14
2018-04-30T14:17:14.832Z,99596.63
2018-04-30T14:19:44.127Z,99591.56
2018-04-30T14:22:12.658Z,99596.66
2018-04-30T14:24:41.042Z,99596.68
2018-04-30T14:27:09.682Z,99588.54
2018-04-30T14:29:38.083Z,99590.25
2018-04-30T14:32:06.528Z,99589.12
2018-04-30T14:34:35.700Z,99587.16
2018-04-30T14:37:04.050Z,99588.05
2018-04-30T14:39:32.414Z,99587.03
2018-04-30T14:42:01.117Z,99589.78
2018-04-30T14:44:29.586Z,99596.28
2018-04-30T14:46:59.609Z,99590.16
2018-04-30T14:49:28.015Z,99582.58
2018-04-30T14:51:56.436Z,99582.67
2018-04-30T14:54:25.568Z,99583.75
2018-04-30T14:56:54.817Z,99577.39
2018-04-30T14:59:23.926Z,99578.22
2018-04-30T15:01:53.042Z,99582.38
2018-04-30T15:04:21.413Z,99579.72
2018-04-30T15:06:51.797Z,99574.95
2018-04-30T15:09:20.192Z,99572.73
2018-04-30T15:11:49.352Z,99574.00
2018-04-30T15:14:17.783Z,99563.30
2018-04-30T15:16:46.914Z,99564.80
2018-04-30T15:19:15.269Z,99562.52
2018-04-30T15:21:43.608Z,99557.06
2018-04-30T15:24:12.892Z,99555.91
2018-04-30T15:26:41.987Z,99558.07
2018-04-30T15:29:10.348Z,99548.77
2018-04-30T15:31:38.767Z,99551.05
2018-04-30T15:34:07.128Z,99555.51
2018-04-30T15:36:35.528Z,99554.50
2018-04-30T15:39:03.890Z,99548.20
2018-04-30T15:41:32.214Z,99560.05
2018-04-30T15:44:00.637Z,99547.73
2018-04-30T15:46:29.110Z,99556.47
2018-04-30T15:48:57.507Z,99562.10
2018-04-30T15:51:25.878Z,99553.53
2018-04-30T15:53:54.210Z,99549.63
2018-04-30T15:56:22.561Z,99552.81
2018-04-30T15:58:51.113Z,99547.69
2018-04-30T16:01:19.502Z,99556.17
2018-04-30T16:03:47.849Z,99557.00
2018-04-30T16:06:16.210Z,99567.66
2018-04-30T16:08:45.483Z,99575.24
2018-04-30T16:11:14.588Z,99570.00
2018-04-30T16:13:43.711Z,99562.41
2018-04-30T16:16:12.089Z,99560.52
2018-04-30T16:18:40.479Z,99565.80
2018-04-30T16:21:08.881Z,99565.39
2018-04-30T16:23:37.215Z,99562.19
2018-04-30T16:26:05.589Z,99582.91
2018-04-30T16:28:34.030Z,99568.83
2018-04-30T16:31:02.419Z,99575.92
2018-04-30T16:33:30.808Z,99592.27
2018-04-30T16:35:59.890Z,99575.08
2018-04-30T16:38:28.279Z,99585.40
2018-04-30T16:40:56.632Z,99584.59
2018-04-30T16:43:25.004Z,99581.37
2018-04-30T16:45:53.342Z,99586.28
2018-04-30T16:48:21.713Z,99587.33
2018-04-30T16:50:50.804Z,99597.95
2018-04-30T16:53:19.926Z,99584.59
2018-04-30T16:55:48.288Z,99590.36
2018-04-30T16:58:16.619Z,99596.84
2018-04-30T17:00:44.960Z,99593.45
2018-04-30T17:03:13.316Z,99593.74
2018-04-30T17:05:42.408Z,99609.34
2018-04-30T17:10:49.814Z,99600.59
2018-04-30T17:13:19.307Z,99601.31
2018-04-30T17:15:48.428Z,99609.20
2018-04-30T17:18:17.100Z,99600.03
2018-04-30T17:20:45.498Z,99619.70
2018-04-30T17:23:14.792Z,99615.96
2018-04-30T17:25:43.163Z,99613.61
2018-04-30T17:28:12.316Z,99617.69
2018-04-30T17:30:41.054Z,99617.83
2018-04-30T17:33:09.430Z,99622.32
2018-04-30T17:35:38.146Z,99610.55
2018-04-30T17:38:07.612Z,99623.75
2018-04-30T17:40:36.897Z,99626.35
2018-04-30T17:43:06.865Z,99628.56
2018-04-30T17:45:35.435Z,99630.48
2018-04-30T17:48:03.814Z,99620.44
2018-04-30T17:50:32.155Z,99632.57
2018-04-30T17:53:00.548Z,99631.17
2018-04-30T17:55:29.764Z,99636.25
2018-04-30T17:57:59.016Z,99638.59
2018-04-30T18:00:27.470Z,99636.25
2018-04-30T18:02:56.347Z,99640.02
2018-04-30T18:05:24.914Z,99647.47
2018-04-30T18:07:53.436Z,99644.45
2018-04-30T18:10:21.933Z,99648.25
2018-04-30T18:12:52.457Z,99647.83
2018-04-30T18:15:23.211Z,99646.55
2018-04-30T18:17:52.865Z,99649.77
2018-04-30T18:20:21.286Z,99656.44
2018-04-30T18:22:49.716Z,99656.29
2018-04-30T18:25:18.169Z,99658.17
2018-04-30T18:27:47.370Z,99667.59
2018-04-30T18:30:15.639Z,99671.08
2018-04-30T18:32:44.114Z,99676.58
2018-04-30T18:35:12.526Z,99679.84
2018-04-30T18:37:40.948Z,99675.81
2018-04-30T18:40:09.944Z,99677.48
2018-04-30T18:42:38.465Z,99681.59
2018-04-30T18:45:07.844Z,99690.22
2018-04-30T18:47:36.230Z,99686.94
2018-04-30T18:50:06.858Z,99696.55
2018-04-30T18:52:36.785Z,99706.38
2018-04-30T18:55:05.966Z,99701.05
2018-04-30T18:57:37.157Z,99716.62
2018-04-30T19:00:05.568Z,99718.43
2018-04-30T19:02:34.253Z,99720.78
2018-04-30T19:05:02.696Z,99715.77
2018-04-30T19:07:33.214Z,99719.73
2018-04-30T19:10:01.596Z,99718.21
2018-04-30T19:12:31.790Z,99707.72
2018-04-30T19:15:06.062Z,99720.93
2018-04-30T19:17:38.290Z,99722.12
2018-04-30T19:20:09.888Z,99732.98
2018-04-30T19:22:40.006Z,99736.97
2018-04-30T19:25:09.955Z,99726.33
2018-04-30T19:27:39.226Z,99741.28
2018-04-30T19:30:10.794Z,99742.52
2018-04-30T19:32:41.333Z,99739.02
2018-04-30T19:35:11.350Z,99727.31
2018-04-30T19:37:40.582Z,99732.61
2018-04-30T19:40:10.116Z,99730.28
2018-04-30T19:42:41.087Z,99730.28
2018-04-30T19:45:11.909Z,99743.70
2018-04-30T19:47:41.006Z,99726.38
2018-04-30T19:50:10.791Z,99732.08
2018-04-30T19:52:40.587Z,99716.36
2018-04-30T19:55:09.680Z,99717.23
2018-04-30T19:57:39.046Z,99716.50
2018-04-30T20:00:10.671Z,99712.33
2018-04-30T20:02:40.083Z,99712.47
2018-04-30T20:05:08.659Z,99713.13
2018-04-30T20:07:37.842Z,99710.70
2018-04-30T20:10:07.214Z,99717.06
2018-04-30T20:12:36.347Z,99715.56
2018-04-30T20:15:05.421Z,99708.22
2018-04-30T20:17:34.666Z,99704.31
2018-04-30T20:20:03.051Z,99704.55
2018-04-30T20:22:31.995Z,99708.67
2018-04-30T20:25:00.583Z,99702.25
2018-04-30T20:27:28.960Z,99701.83
2018-04-30T20:29:58.407Z,99704.84
2018-04-30T20:32:26.788Z,99704.15
2018-04-30T20:34:55.154Z,99706.42
2018-04-30T20:37:23.913Z,99704.25
2018-04-30T20:39:53.509Z,99698.51
2018-04-30T20:42:23.439Z,99703.61
2018-04-30T20:44:51.789Z,99703.77
2018-04-30T20:47:21.695Z,99701.28
2018-04-30T20:49:51.091Z,99694.35
2018-04-30T20:52:20.292Z,99694.11
2018-04-30T20:54:50.100Z,99692.33
2018-04-30T20:57:19.167Z,99693.80
2018-04-30T20:59:47.758Z,99687.52
2018-04-30T21:02:16.961Z,99690.04
2018-04-30T21:04:47.328Z,99688.43
2018-04-30T21:07:16.526Z,99688.09
2018-04-30T21:09:57.850Z,99684.95
2018-04-30T21:12:26.189Z,99669.13
2018-04-30T21:14:55.348Z,99673.58
2018-04-30T21:17:23.721Z,99675.58
2018-04-30T21:19:53.066Z,99676.13
2018-04-30T21:22:21.440Z,99670.23
2018-04-30T21:24:54.390Z,99668.67
2018-04-30T21:27:24.061Z,99663.56
2018-04-30T21:29:52.414Z,99668.14
2018-04-30T21:32:22.367Z,99669.43
2018-04-30T21:34:50.724Z,99659.59
2018-04-30T21:37:28.589Z,99655.42
2018-04-30T21:39:57.155Z,99656.22
2018-04-30T21:42:26.257Z,99649.50
2018-04-30T21:44:54.683Z,99655.52
2018-04-30T21:47:23.066Z,99658.42
2018-04-30T21:49:52.303Z,99658.20
2018-04-30T21:52:20.678Z,99657.41
2018-04-30T21:54:49.057Z,99654.95
2018-04-30T21:57:18.088Z,99651.55
2018-04-30T21:59:47.248Z,99653.22
2018-04-30T22:02:15.630Z,99651.22
2018-04-30T22:04:45.630Z,99659.03
2018-04-30T22:07:13.998Z,99646.23
2018-04-30T22:09:43.194Z,99640.54
2018-04-30T22:12:14.247Z,99648.66
2018-04-30T22:14:42.730Z,99650.80
2018-04-30T22:17:11.120Z,99650.30
2018-04-30T22:19:39.795Z,99646.93
2018-04-30T22:22:08.834Z,99643.39
2018-04-30T22:24:37.969Z,99637.34
2018-04-30T22:27:06.313Z,99637.58
2018-04-30T22:29:35.444Z,99640.47
2018-04-30T22:32:03.981Z,99633.77
2018-04-30T22:34:33.076Z,99640.38
2018-04-30T22:37:01.410Z,99636.67
2018-04-30T22:39:29.767Z,99631.11
2018-04-30T22:41:58.142Z,99623.70
2018-04-30T22:44:27.333Z,99626.58
2018-04-30T22:46:56.501Z,99622.19
2018-04-30T22:49:24.945Z,99633.77
2018-04-30T22:51:53.410Z,99636.20
2018-04-30T22:54:21.888Z,99628.64
2018-04-30T22:56:50.623Z,99636.64
2018-04-30T22:59:19.098Z,99636.56
2018-04-30T23:01:47.686Z,99632.28
2018-04-30T23:04:16.550Z,99630.22
2018-04-30T23:06:45.740Z,99638.73
2018-04-30T23:09:14.126Z,99634.63
2018-04-30T23:11:42.476Z,99631.66
2018-04-30T23:14:10.856Z,99642.71
2018-04-30T23:16:39.276Z,99640.73
2018-04-30T23:19:08.502Z,99640.84
2018-04-30T23:21:36.922Z,99636.97
2018-04-30T23:24:05.280Z,99644.47
2018-04-30T23:26:34.451Z,99647.76
2018-04-30T23:29:04.609Z,99640.28
2018-04-30T23:31:33.059Z,99652.84
2018-04-30T23:34:02.300Z,99638.86
2018-04-30T23:36:30.643Z,99634.66
2018-04-30T23:38:59.796Z,99650.33
2018-04-30T23:41:28.939Z,99640.39
2018-04-30T23:43:57.320Z,99639.54
2018-04-30T23:46:26.084Z,99642.37
2018-04-30T23:48:54.458Z,99646.49
2018-04-30T23:51:22.789Z,99637.15
2018-04-30T23:53:51.140Z,99634.83
2018-04-30T23:56:21.221Z,99647.23
2018-04-30T23:58:50.221Z,99647.59
